Jonesboro, Texas
Current Conditions -  °F | °C
As of 12:55 PM on Thursday 23 Oct 2014 (Local Time) from KGOP Reporting Station
Clear Clear  
Wind Chill: 79°   Ceiling: Unl
Heat Index: 80°   Visibility: 10mi
Dew Point: 59°   Wind: 6mph
Humidity: 51%   Direction: 240°WSW
Pressure: 30.16"   Gusts: NA
Location:  31.61°N, 97.88°W
Report Text: KGOP 231755Z AUTO 24005KT 10SM CLR 26/15 A3016 RMK AO2
Loading
Personal Weather Stations






























Interactive Weather Map
Tropical Storm Tracking
New forecast layout! Learn more

10-Day Weather Forecast

Advertisements
Track Severe Weather on mobile